createdAt,value
2019-04-14T00:02:07.876Z,10.60
2019-04-14T00:04:42.456Z,9.40
2019-04-14T00:07:12.713Z,10.67
2019-04-14T00:09:43.198Z,10.30
2019-04-14T00:12:14.355Z,9.73
2019-04-14T00:14:44.771Z,10.60
2019-04-14T00:17:15.181Z,10.07
2019-04-14T00:19:45.689Z,9.63
2019-04-14T00:22:16.786Z,9.67
2019-04-14T00:24:46.982Z,10.00
2019-04-14T00:27:17.739Z,10.30
2019-04-14T00:29:48.045Z,10.30
2019-04-14T00:32:18.375Z,10.13
2019-04-14T00:35:08.250Z,10.80
2019-04-14T00:38:02.378Z,10.87
2019-04-14T00:40:39.005Z,9.87
2019-04-14T00:43:30.964Z,10.37
2019-04-14T00:46:05.976Z,10.90
2019-04-14T00:48:36.631Z,10.30
2019-04-14T00:51:07.437Z,11.00
2019-04-14T00:53:38.174Z,11.03
2019-04-14T00:56:08.601Z,11.20
2019-04-14T00:58:39.009Z,10.57
2019-04-14T01:01:09.702Z,10.93
2019-04-14T01:03:39.924Z,11.20
2019-04-14T01:06:10.225Z,10.20
2019-04-14T01:08:40.759Z,11.30
2019-04-14T01:11:11.718Z,11.37
2019-04-14T01:13:42.084Z,11.17
2019-04-14T01:16:18.394Z,11.50
2019-04-14T01:18:45.120Z,10.97
2019-04-14T01:21:15.908Z,12.07
2019-04-14T01:23:46.097Z,11.40
2019-04-14T01:26:16.333Z,11.60
2019-04-14T01:28:46.530Z,11.63
2019-04-14T01:31:16.825Z,12.00
2019-04-14T01:33:47.060Z,11.37
2019-04-14T01:36:17.426Z,12.87
2019-04-14T01:38:49.283Z,12.13
2019-04-14T01:41:19.619Z,12.83
2019-04-14T01:43:49.956Z,13.23
2019-04-14T01:46:24.718Z,12.73
2019-04-14T01:48:52.356Z,12.77
2019-04-14T01:51:40.138Z,12.80
2019-04-14T01:54:27.769Z,12.57
2019-04-14T01:57:15.644Z,12.73
2019-04-14T01:59:46.140Z,12.20
2019-04-14T02:02:20.668Z,12.50
2019-04-14T02:04:51.013Z,12.77
2019-04-14T02:07:21.254Z,12.97
2019-04-14T02:09:51.507Z,13.50
2019-04-14T02:12:21.761Z,13.60
2019-04-14T02:14:52.394Z,13.90
2019-04-14T02:17:22.596Z,13.87
2019-04-14T02:19:54.521Z,13.83
2019-04-14T02:22:24.972Z,14.57
2019-04-14T02:24:56.988Z,14.70
2019-04-14T02:27:27.738Z,15.10
2019-04-14T02:29:58.368Z,14.20
2019-04-14T02:33:00.925Z,14.70
2019-04-14T02:35:31.829Z,13.07
2019-04-14T02:38:01.999Z,13.33
2019-04-14T02:40:39.147Z,12.63
2019-04-14T02:43:04.337Z,14.60
2019-04-14T02:45:50.481Z,14.53
2019-04-14T02:48:20.263Z,14.27
2019-04-14T02:50:38.602Z,13.33
2019-04-14T02:53:15.884Z,13.40
2019-04-14T02:55:49.215Z,13.43
2019-04-14T02:58:18.260Z,13.80
2019-04-14T03:00:48.080Z,14.73
2019-04-14T03:03:21.545Z,14.37
2019-04-14T03:05:57.984Z,13.90
2019-04-14T03:08:25.556Z,15.10
2019-04-14T03:10:54.024Z,13.90
2019-04-14T03:13:28.717Z,13.80
2019-04-14T03:15:56.809Z,14.83
2019-04-14T03:18:57.755Z,14.70
2019-04-14T03:21:48.828Z,15.63
2019-04-14T03:24:33.976Z,14.93
2019-04-14T03:27:40.361Z,14.00
2019-04-14T03:38:13.298Z,15.10
2019-04-14T03:40:41.246Z,16.80
2019-04-14T03:43:24.457Z,15.40
2019-04-14T03:50:44.320Z,15.43
2019-04-14T03:53:21.425Z,16.03
2019-04-14T03:56:06.709Z,15.77
2019-04-14T03:58:35.728Z,15.10
2019-04-14T04:01:06.212Z,16.17
2019-04-14T04:03:36.874Z,17.37
2019-04-14T04:06:07.608Z,15.97
2019-04-14T04:08:37.916Z,15.93
2019-04-14T04:11:08.426Z,16.30
2019-04-14T04:13:39.135Z,16.87
2019-04-14T04:16:23.039Z,16.10
2019-04-14T04:19:01.901Z,15.53
2019-04-14T04:21:44.477Z,17.63
2019-04-14T04:24:35.021Z,16.70
2019-04-14T04:27:39.771Z,16.23
2019-04-14T04:30:18.692Z,17.73
2019-04-14T04:33:06.985Z,16.07
2019-04-14T04:35:41.503Z,16.67
2019-04-14T04:38:16.101Z,18.63
2019-04-14T04:40:46.760Z,18.70
2019-04-14T04:43:17.346Z,18.83
2019-04-14T04:45:47.548Z,19.07
2019-04-14T04:48:17.760Z,18.10
2019-04-14T04:50:48.346Z,19.47
2019-04-14T04:53:20.080Z,17.90
2019-04-14T04:55:50.498Z,19.27
2019-04-14T04:58:21.606Z,19.33
2019-04-14T05:00:54.183Z,20.20
2019-04-14T05:03:25.470Z,18.53
2019-04-14T05:06:39.389Z,20.07
2019-04-14T05:09:17.336Z,18.73
2019-04-14T05:12:06.702Z,20.13
2019-04-14T05:14:45.587Z,20.07
2019-04-14T05:17:17.253Z,20.50
2019-04-14T05:19:47.622Z,19.90
2019-04-14T05:22:19.349Z,21.97
2019-04-14T05:24:50.755Z,22.23
2019-04-14T05:27:21.157Z,22.00
2019-04-14T05:29:51.564Z,21.50
2019-04-14T05:32:21.871Z,21.63
2019-04-14T05:34:52.213Z,21.20
2019-04-14T05:37:22.573Z,22.23
2019-04-14T05:39:52.816Z,21.87
2019-04-14T05:42:25.934Z,21.50
2019-04-14T05:44:57.833Z,22.40
2019-04-14T05:47:28.400Z,22.17
2019-04-14T05:49:59.329Z,22.83
2019-04-14T05:52:30.024Z,21.30
2019-04-14T05:55:00.248Z,23.07
2019-04-14T05:57:30.635Z,23.97
2019-04-14T06:00:01.816Z,24.67
2019-04-14T06:02:33.898Z,23.80
2019-04-14T06:05:06.459Z,23.43
2019-04-14T06:07:36.930Z,23.83
2019-04-14T06:10:07.620Z,23.63
2019-04-14T06:12:37.839Z,25.17
2019-04-14T06:15:08.334Z,24.87
2019-04-14T06:17:38.622Z,26.13
2019-04-14T06:20:09.609Z,24.43
2019-04-14T06:22:39.882Z,24.27
2019-04-14T06:25:10.271Z,24.80
2019-04-14T06:27:40.511Z,24.97
2019-04-14T06:30:32.928Z,25.03
2019-04-14T06:33:09.805Z,25.10
2019-04-14T06:36:05.091Z,23.50
2019-04-14T06:38:37.702Z,25.03
2019-04-14T06:41:10.072Z,25.27
2019-04-14T06:43:48.649Z,25.20
2019-04-14T06:46:12.876Z,25.03
2019-04-14T06:48:43.178Z,26.03
2019-04-14T06:51:13.326Z,25.80
2019-04-14T06:53:43.527Z,25.93
2019-04-14T06:56:13.756Z,26.27
2019-04-14T06:58:43.976Z,24.53
2019-04-14T07:01:14.106Z,24.37
2019-04-14T07:03:44.394Z,24.43
2019-04-14T07:06:14.705Z,24.20
2019-04-14T07:08:45.002Z,24.07
2019-04-14T07:11:15.276Z,23.53
2019-04-14T07:13:47.899Z,23.13
2019-04-14T07:16:17.726Z,24.30
2019-04-14T07:18:48.253Z,23.03
2019-04-14T07:21:18.758Z,22.23
2019-04-14T07:23:48.984Z,23.30
2019-04-14T07:26:19.190Z,22.97
2019-04-14T07:28:56.532Z,21.60
2019-04-14T07:31:40.840Z,23.10
2019-04-14T07:34:30.002Z,21.53
2019-04-14T07:37:20.914Z,22.63
2019-04-14T07:40:09.100Z,22.13
2019-04-14T07:42:50.253Z,25.30
2019-04-14T07:45:38.590Z,24.70
2019-04-14T07:48:13.051Z,23.30
2019-04-14T07:51:20.405Z,23.87
2019-04-14T07:53:57.578Z,23.70
2019-04-14T07:56:45.312Z,22.77
2019-04-14T07:59:40.295Z,22.70
2019-04-14T08:02:26.049Z,24.07
2019-04-14T08:05:01.024Z,24.70
2019-04-14T08:07:31.571Z,23.90
2019-04-14T08:10:01.825Z,23.77
2019-04-14T08:12:35.048Z,23.43
2019-04-14T08:15:04.641Z,25.13
2019-04-14T08:17:35.170Z,21.63
2019-04-14T08:20:06.234Z,24.77
2019-04-14T08:22:36.880Z,27.83
2019-04-14T08:25:07.465Z,28.97
2019-04-14T08:27:37.760Z,27.17
2019-04-14T08:30:10.166Z,28.50
2019-04-14T08:32:40.426Z,25.87
2019-04-14T08:35:11.066Z,27.23
2019-04-14T08:37:41.460Z,26.80
2019-04-14T08:40:12.436Z,25.97
2019-04-14T08:42:58.569Z,29.83
2019-04-14T08:45:59.907Z,30.07
2019-04-14T08:48:48.044Z,31.67
2019-04-14T08:51:25.370Z,31.03
2019-04-14T08:54:09.099Z,28.00
2019-04-14T08:56:58.258Z,27.13
2019-04-14T08:59:56.809Z,29.73
2019-04-14T09:02:45.999Z,31.90
2019-04-14T09:05:35.189Z,32.07
2019-04-14T09:08:10.745Z,33.00
2019-04-14T09:10:44.077Z,30.27
2019-04-14T09:13:14.637Z,32.03
2019-04-14T09:15:45.152Z,31.80
2019-04-14T09:18:15.367Z,33.77
2019-04-14T09:20:52.279Z,32.47
2019-04-14T09:23:17.504Z,32.77
2019-04-14T09:25:48.159Z,32.47
2019-04-14T09:28:18.377Z,33.13
2019-04-14T09:30:48.975Z,31.93
2019-04-14T09:33:19.605Z,34.57
2019-04-14T09:35:49.949Z,35.43
2019-04-14T09:38:20.161Z,32.47
2019-04-14T09:40:50.409Z,32.90
2019-04-14T09:43:21.408Z,31.70
2019-04-14T09:45:52.019Z,30.43
2019-04-14T09:48:22.309Z,28.93
2019-04-14T09:51:04.205Z,27.80
2019-04-14T09:53:24.771Z,26.53
2019-04-14T09:55:55.028Z,27.37
2019-04-14T09:58:27.641Z,30.73
2019-04-14T10:00:57.914Z,29.80
2019-04-14T10:03:28.440Z,33.57
2019-04-14T10:05:58.835Z,28.43
2019-04-14T10:08:29.113Z,29.87
2019-04-14T10:10:59.418Z,31.70
2019-04-14T10:13:29.673Z,30.77
2019-04-14T10:15:59.890Z,31.07
2019-04-14T10:18:30.843Z,30.23
2019-04-14T10:21:01.752Z,32.17
2019-04-14T10:23:32.044Z,31.50
2019-04-14T10:26:02.274Z,32.27
2019-04-14T10:28:32.520Z,33.67
2019-04-14T10:31:03.059Z,32.30
2019-04-14T10:33:33.269Z,32.53
2019-04-14T10:36:03.534Z,31.27
2019-04-14T10:38:33.718Z,31.87
2019-04-14T10:41:03.908Z,31.73
2019-04-14T10:43:34.214Z,31.90
2019-04-14T10:46:04.950Z,30.40
2019-04-14T10:48:35.505Z,31.00
2019-04-14T10:51:06.814Z,30.77
2019-04-14T10:53:37.008Z,30.63
2019-04-14T10:56:07.341Z,32.50
2019-04-14T10:58:37.614Z,35.13
2019-04-14T11:01:08.188Z,34.07
2019-04-14T11:03:38.482Z,36.57
2019-04-14T11:06:14.719Z,37.10
2019-04-14T11:08:45.271Z,34.50
2019-04-14T11:11:15.532Z,33.33
2019-04-14T11:13:45.796Z,30.40
2019-04-14T11:16:16.109Z,30.30
2019-04-14T11:18:46.266Z,30.70
2019-04-14T11:21:16.543Z,28.33
2019-04-14T11:23:47.120Z,28.33
2019-04-14T11:26:17.778Z,26.40
2019-04-14T11:28:48.009Z,26.60
2019-04-14T11:31:35.436Z,25.97
2019-04-14T11:34:05.815Z,24.33
2019-04-14T11:36:47.072Z,25.27
2019-04-14T11:39:18.475Z,22.53
2019-04-14T11:41:48.722Z,22.60
2019-04-14T11:44:18.944Z,21.43
2019-04-14T11:46:49.289Z,21.63
2019-04-14T11:49:19.925Z,22.83
2019-04-14T11:51:55.605Z,22.70
2019-04-14T11:54:22.185Z,21.67
2019-04-14T11:56:52.700Z,21.67
2019-04-14T11:59:33.006Z,21.83
2019-04-14T12:02:15.450Z,20.77
2019-04-14T12:05:07.405Z,21.00
2019-04-14T12:07:45.788Z,21.53
2019-04-14T12:10:18.392Z,21.70
2019-04-14T12:12:49.003Z,21.97
2019-04-14T12:15:19.240Z,21.47
2019-04-14T12:17:49.767Z,23.23
2019-04-14T12:20:19.971Z,23.40
2019-04-14T12:22:50.289Z,24.23
2019-04-14T12:25:20.493Z,22.97
2019-04-14T12:27:51.278Z,23.70
2019-04-14T12:30:22.387Z,22.10
2019-04-14T12:32:52.733Z,22.27
2019-04-14T12:35:23.064Z,21.67
2019-04-14T12:37:53.491Z,22.97
2019-04-14T12:40:23.894Z,21.00
2019-04-14T12:43:07.314Z,21.50
2019-04-14T12:45:49.038Z,22.57
2019-04-14T12:48:36.777Z,21.57
2019-04-14T12:51:26.057Z,21.03
2019-04-14T12:53:56.354Z,21.57
2019-04-14T12:56:27.845Z,21.43
2019-04-14T12:59:16.979Z,19.90
2019-04-14T13:01:57.059Z,21.33
2019-04-14T13:04:27.374Z,22.07
2019-04-14T13:06:58.504Z,20.63
2019-04-14T13:09:28.760Z,20.27
2019-04-14T13:11:58.965Z,21.37
2019-04-14T13:14:29.243Z,20.40
2019-04-14T13:16:59.574Z,20.70
2019-04-14T13:19:29.918Z,21.23
2019-04-14T13:22:00.197Z,20.40
2019-04-14T13:24:30.504Z,20.40
2019-04-14T13:27:00.819Z,21.40
2019-04-14T13:29:31.112Z,21.27
2019-04-14T13:32:01.437Z,18.83
2019-04-14T13:34:32.333Z,20.73
2019-04-14T13:37:02.543Z,20.63
2019-04-14T13:39:33.165Z,19.77
2019-04-14T13:42:06.057Z,20.10
2019-04-14T13:44:36.395Z,19.87
2019-04-14T13:47:06.674Z,19.93
2019-04-14T13:49:36.954Z,21.47
2019-04-14T13:52:07.206Z,19.23
2019-04-14T13:54:38.858Z,19.53
2019-04-14T13:57:09.058Z,20.27
2019-04-14T13:59:39.277Z,19.33
2019-04-14T14:02:10.619Z,20.23
2019-04-14T14:04:40.900Z,19.40
2019-04-14T14:07:11.136Z,19.17
2019-04-14T14:09:41.450Z,20.17
2019-04-14T14:12:36.894Z,19.93
2019-04-14T14:15:25.406Z,19.37
2019-04-14T14:18:13.217Z,19.70
2019-04-14T14:21:08.242Z,20.70
2019-04-14T14:23:57.368Z,20.53
2019-04-14T14:26:28.616Z,19.70
2019-04-14T14:28:58.878Z,19.07
2019-04-14T14:31:29.134Z,19.47
2019-04-14T14:33:59.396Z,19.83
2019-04-14T14:36:29.636Z,19.43
2019-04-14T14:38:59.883Z,20.17
2019-04-14T14:41:30.082Z,20.60
2019-04-14T14:44:00.742Z,20.33
2019-04-14T14:46:48.503Z,20.30
2019-04-14T14:49:30.708Z,19.93
2019-04-14T14:52:05.322Z,18.87
2019-04-14T14:54:35.974Z,19.53
2019-04-14T14:57:06.527Z,19.70
2019-04-14T14:59:36.760Z,19.40
2019-04-14T15:02:07.170Z,18.97
2019-04-14T15:04:37.460Z,18.53
2019-04-14T15:07:08.030Z,18.50
2019-04-14T15:09:38.193Z,18.20
2019-04-14T15:12:08.669Z,17.50
2019-04-14T15:14:38.939Z,18.40
2019-04-14T15:17:09.246Z,20.10
2019-04-14T15:19:39.502Z,16.63
2019-04-14T15:22:09.756Z,18.63
2019-04-14T15:24:40.078Z,19.27
2019-04-14T15:27:10.630Z,19.37
2019-04-14T15:29:41.012Z,18.73
2019-04-14T15:32:11.600Z,17.00
2019-04-14T15:34:41.931Z,16.97
2019-04-14T15:37:12.151Z,17.43
2019-04-14T15:39:42.358Z,17.03
2019-04-14T15:42:12.609Z,16.97
2019-04-14T15:44:43.262Z,17.30
2019-04-14T15:47:14.030Z,16.87
2019-04-14T15:49:44.238Z,16.57
2019-04-14T15:52:14.637Z,16.33
2019-04-14T15:54:45.000Z,15.23
2019-04-14T15:57:29.640Z,15.83
2019-04-14T16:00:20.440Z,16.00
2019-04-14T16:02:58.748Z,14.77
2019-04-14T16:05:43.748Z,15.73
2019-04-14T16:08:28.726Z,14.97
2019-04-14T16:11:15.407Z,14.93
2019-04-14T16:14:01.211Z,14.73
2019-04-14T16:16:56.772Z,15.17
2019-04-14T16:19:43.126Z,15.47
2019-04-14T16:22:13.470Z,13.40
2019-04-14T16:24:44.021Z,13.73
2019-04-14T16:27:33.676Z,15.37
2019-04-14T16:30:28.716Z,13.50
2019-04-14T16:33:18.164Z,13.33
2019-04-14T16:35:48.709Z,12.30
2019-04-14T16:38:19.486Z,12.83
2019-04-14T16:43:15.727Z,13.80
2019-04-14T16:45:48.301Z,13.93
2019-04-14T16:48:20.019Z,14.40
2019-04-14T16:50:50.705Z,14.73
2019-04-14T16:53:25.447Z,13.40
2019-04-14T16:56:01.139Z,13.77
2019-04-14T16:58:36.042Z,13.67
2019-04-14T17:01:12.679Z,12.43
2019-04-14T17:03:43.055Z,13.27
2019-04-14T17:06:13.685Z,13.13
2019-04-14T17:08:43.974Z,12.53
2019-04-14T17:11:14.559Z,12.30
2019-04-14T17:13:50.489Z,12.37
2019-04-14T17:16:35.055Z,12.77
2019-04-14T17:19:12.368Z,13.77
2019-04-14T17:21:56.239Z,11.70
2019-04-14T17:24:45.499Z,11.70
2019-04-14T17:27:33.614Z,12.23
2019-04-14T17:30:29.415Z,12.80
2019-04-14T17:33:24.594Z,11.43
2019-04-14T17:36:17.675Z,11.80
2019-04-14T17:39:16.169Z,11.63
2019-04-14T17:42:01.768Z,12.63
2019-04-14T17:44:54.490Z,11.77
2019-04-14T17:47:42.390Z,12.70
2019-04-14T17:50:43.740Z,12.60
2019-04-14T17:53:39.791Z,12.07
2019-04-14T17:56:34.897Z,12.13
2019-04-14T17:59:23.976Z,12.30
2019-04-14T18:02:31.289Z,11.67
2019-04-14T18:05:14.804Z,12.57
2019-04-14T18:07:50.160Z,11.50
2019-04-14T18:10:49.172Z,11.90
2019-04-14T18:13:24.625Z,11.67
2019-04-14T18:16:14.209Z,11.87
2019-04-14T18:19:06.266Z,11.40
2019-04-14T18:21:36.567Z,13.00
2019-04-14T18:24:06.821Z,12.53
2019-04-14T18:26:37.111Z,12.53
2019-04-14T18:29:44.478Z,13.90
2019-04-14T18:32:20.321Z,11.83
2019-04-14T18:35:09.634Z,11.47
2019-04-14T18:38:11.018Z,11.70
2019-04-14T18:41:02.967Z,12.17
2019-04-14T18:44:01.655Z,11.70
2019-04-14T18:46:49.475Z,11.27
2019-04-14T18:49:50.663Z,12.10
2019-04-14T18:52:39.912Z,11.50
2019-04-14T18:55:29.186Z,11.30
2019-04-14T18:58:06.608Z,11.80
2019-04-14T19:00:41.729Z,11.57
2019-04-14T19:03:11.931Z,11.23
2019-04-14T19:05:42.216Z,11.50
2019-04-14T19:08:12.759Z,12.10
2019-04-14T19:10:45.201Z,11.27
2019-04-14T19:13:22.466Z,11.80
2019-04-14T19:15:58.216Z,11.70
2019-04-14T19:18:31.949Z,10.40
2019-04-14T19:21:14.775Z,10.37
2019-04-14T19:23:46.647Z,11.73
2019-04-14T19:26:17.261Z,11.03
2019-04-14T19:28:47.768Z,11.00
2019-04-14T19:31:18.372Z,11.50
2019-04-14T19:33:48.698Z,11.33
2019-04-14T19:36:19.656Z,11.37
2019-04-14T19:38:49.977Z,11.67
2019-04-14T19:41:20.327Z,11.20
2019-04-14T19:43:50.609Z,11.57
2019-04-14T19:46:21.246Z,11.37
2019-04-14T19:48:51.486Z,10.77
2019-04-14T19:51:21.797Z,11.17
2019-04-14T19:53:52.070Z,11.53
2019-04-14T19:56:22.275Z,11.50
2019-04-14T19:58:52.526Z,11.47
2019-04-14T20:01:22.758Z,11.33
2019-04-14T20:03:53.062Z,12.20
2019-04-14T20:06:23.348Z,10.60
2019-04-14T20:08:53.701Z,11.37
2019-04-14T20:11:25.020Z,11.20
2019-04-14T20:13:55.335Z,10.70
2019-04-14T20:16:42.966Z,10.90
2019-04-14T20:19:31.471Z,10.60
2019-04-14T20:22:20.016Z,11.00
2019-04-14T20:25:12.219Z,11.93
2019-04-14T20:27:57.081Z,10.93
2019-04-14T20:30:39.778Z,11.07
2019-04-14T20:33:10.038Z,10.60
2019-04-14T20:35:40.647Z,11.60
2019-04-14T20:38:11.052Z,11.63
2019-04-14T20:40:41.732Z,11.30
2019-04-14T20:43:12.338Z,11.27
2019-04-14T20:45:42.661Z,12.10
2019-04-14T20:48:13.427Z,11.37
2019-04-14T20:50:43.728Z,10.77
2019-04-14T20:53:13.947Z,11.97
2019-04-14T20:55:47.146Z,12.47
2019-04-14T20:58:16.556Z,11.20
2019-04-14T21:00:46.861Z,11.57
2019-04-14T21:03:42.450Z,10.93
2019-04-14T21:06:28.847Z,11.53
2019-04-14T21:09:18.359Z,12.37
2019-04-14T21:11:57.066Z,11.30
2019-04-14T21:14:52.443Z,12.40
2019-04-14T21:17:27.418Z,12.10
2019-04-14T21:20:03.746Z,11.47
2019-04-14T21:22:41.061Z,11.70
2019-04-14T21:25:45.430Z,12.27
2019-04-14T21:28:23.857Z,11.80
2019-04-14T21:31:04.533Z,13.27
2019-04-14T21:34:00.047Z,12.70
2019-04-14T21:36:34.984Z,11.73
2019-04-14T21:39:15.841Z,12.43
2019-04-14T21:41:48.123Z,12.00
2019-04-14T21:44:18.433Z,12.47
2019-04-14T21:46:48.590Z,11.90
2019-04-14T21:49:18.826Z,12.80
2019-04-14T21:51:57.719Z,12.97
2019-04-14T21:54:28.021Z,13.03
2019-04-14T21:57:20.060Z,12.97
2019-04-14T22:00:12.376Z,12.63
2019-04-14T22:03:02.011Z,12.77
2019-04-14T22:05:42.855Z,13.33
2019-04-14T22:08:17.271Z,13.70
2019-04-14T22:10:51.273Z,12.97
2019-04-14T22:13:21.558Z,14.27
2019-04-14T22:15:51.794Z,13.07
2019-04-14T22:18:22.550Z,12.60
2019-04-14T22:20:52.828Z,12.80
2019-04-14T22:23:23.223Z,13.10
2019-04-14T22:25:54.052Z,12.33
2019-04-14T22:28:24.288Z,11.93
2019-04-14T22:30:54.594Z,12.37
2019-04-14T22:33:25.312Z,12.27
2019-04-14T22:35:55.664Z,12.60
2019-04-14T22:38:25.956Z,13.20
2019-04-14T22:40:56.318Z,12.83
2019-04-14T22:43:26.556Z,12.50
2019-04-14T22:45:56.816Z,12.57
2019-04-14T22:48:27.066Z,12.33
2019-04-14T22:50:57.735Z,12.57
2019-04-14T22:53:28.413Z,14.60
2019-04-14T22:55:58.689Z,12.83
2019-04-14T22:58:29.395Z,12.70
2019-04-14T23:01:13.295Z,12.47
2019-04-14T23:03:59.950Z,12.83
2019-04-14T23:06:54.521Z,12.90
2019-04-14T23:09:38.638Z,13.07
2019-04-14T23:12:26.886Z,12.13
2019-04-14T23:15:22.430Z,13.40
2019-04-14T23:18:14.722Z,14.17
2019-04-14T23:21:03.050Z,12.07
2019-04-14T23:23:58.352Z,13.40
2019-04-14T23:26:28.709Z,13.23
2019-04-14T23:29:02.220Z,14.20
2019-04-14T23:31:32.449Z,12.90
2019-04-14T23:34:02.628Z,12.83
2019-04-14T23:36:32.878Z,12.77
2019-04-14T23:39:03.876Z,13.23
2019-04-14T23:41:35.826Z,12.97
2019-04-14T23:44:06.047Z,12.90
2019-04-14T23:46:37.367Z,12.80
2019-04-14T23:49:07.901Z,12.13
2019-04-14T23:51:38.586Z,14.00
2019-04-14T23:54:08.784Z,12.80
2019-04-14T23:56:38.971Z,13.53
2019-04-14T23:59:09.270Z,13.40
